createdAt,value
2023-03-05T00:01:49.529Z,77.09
2023-03-05T00:04:23.917Z,76.73
2023-03-05T00:07:18.309Z,76.88
2023-03-05T00:11:02.819Z,76.74
2023-03-05T00:13:52.830Z,76.88
2023-03-05T00:17:10.883Z,77.00
2023-03-05T00:20:39.855Z,76.82
2023-03-05T00:24:48.977Z,77.17
2023-03-05T00:28:31.608Z,77.24
2023-03-05T00:32:04.169Z,77.47
2023-03-05T00:35:01.028Z,77.50
2023-03-05T00:38:23.067Z,77.27
2023-03-05T00:41:17.124Z,77.28
2023-03-05T00:44:41.198Z,77.17
2023-03-05T00:47:35.700Z,77.60
2023-03-05T00:51:08.334Z,77.84
2023-03-05T00:54:29.102Z,77.74
2023-03-05T00:57:51.031Z,78.09
2023-03-05T01:01:30.348Z,78.39
2023-03-05T01:04:38.977Z,78.55
2023-03-05T01:08:20.758Z,78.93
2023-03-05T01:11:45.877Z,79.11
2023-03-05T01:14:51.077Z,79.20
2023-03-05T01:18:01.959Z,79.45
2023-03-05T01:21:31.796Z,79.29
2023-03-05T01:25:05.189Z,78.96
2023-03-05T01:28:03.051Z,78.99
2023-03-05T01:30:57.488Z,78.60
2023-03-05T01:34:29.965Z,78.28
2023-03-05T01:38:09.036Z,78.27
2023-03-05T01:41:28.208Z,78.52
2023-03-05T01:44:20.894Z,78.84
2023-03-05T01:47:27.949Z,79.18
2023-03-05T01:51:13.961Z,78.99
2023-03-05T01:54:01.179Z,78.73
2023-03-05T01:57:20.611Z,78.93
2023-03-05T02:00:59.878Z,79.01
2023-03-05T02:04:25.332Z,79.13
2023-03-05T02:07:54.450Z,79.10
2023-03-05T02:11:03.767Z,79.03
2023-03-05T02:14:02.197Z,79.01
2023-03-05T02:16:47.546Z,79.10
2023-03-05T02:20:29.161Z,79.17
2023-03-05T02:23:42.136Z,79.08
2023-03-05T02:30:04.598Z,79.34
2023-03-05T02:32:46.264Z,79.41
2023-03-05T02:36:00.532Z,79.44
2023-03-05T02:38:59.182Z,79.42
2023-03-05T02:42:04.473Z,79.44
2023-03-05T02:45:04.895Z,79.47
2023-03-05T02:48:43.999Z,79.45
2023-03-05T02:51:32.861Z,79.52
2023-03-05T02:54:33.369Z,79.62
2023-03-05T02:57:51.673Z,79.59
2023-03-05T03:01:19.546Z,79.25
2023-03-05T03:04:53.884Z,79.24
2023-03-05T03:08:03.208Z,79.02
2023-03-05T03:11:24.753Z,79.46
2023-03-05T03:14:47.574Z,79.80
2023-03-05T03:17:41.503Z,79.90
2023-03-05T03:21:19.907Z,79.77
2023-03-05T03:24:48.658Z,79.76
2023-03-05T03:28:11.800Z,80.39
2023-03-05T03:31:55.503Z,80.79
2023-03-05T03:35:06.204Z,81.11
2023-03-05T03:38:36.975Z,81.38
2023-03-05T03:41:28.905Z,81.63
2023-03-05T03:45:03.405Z,81.83
2023-03-05T03:48:13.930Z,82.10
2023-03-05T03:51:41.261Z,82.33
2023-03-05T03:54:42.971Z,82.53
2023-03-05T03:58:32.098Z,82.80
2023-03-05T04:01:52.124Z,83.24
2023-03-05T04:05:07.648Z,83.49
2023-03-05T04:08:14.988Z,83.25
2023-03-05T04:11:46.745Z,83.56
2023-03-05T04:15:36.180Z,83.84
2023-03-05T04:19:16.133Z,84.34
2023-03-05T04:23:05.461Z,85.05
2023-03-05T04:26:54.639Z,85.51
2023-03-05T04:30:46.004Z,85.50
2023-03-05T04:34:15.992Z,85.77
2023-03-05T04:37:44.274Z,85.64
2023-03-05T04:41:33.676Z,84.90
2023-03-05T04:44:55.517Z,86.08
2023-03-05T04:48:34.164Z,85.76
2023-03-05T04:51:55.758Z,86.58
2023-03-05T04:55:27.214Z,86.37
2023-03-05T04:58:20.964Z,86.59
2023-03-05T05:01:36.898Z,86.62
2023-03-05T05:04:49.369Z,86.76
2023-03-05T05:07:34.063Z,86.92
2023-03-05T05:10:02.609Z,86.97
2023-03-05T05:12:55.590Z,87.41
2023-03-05T05:16:03.668Z,87.68
2023-03-05T05:18:42.560Z,87.86
2023-03-05T05:22:05.328Z,87.94
2023-03-05T05:25:15.714Z,87.92
2023-03-05T05:28:24.959Z,87.81
2023-03-05T05:30:54.128Z,87.52
2023-03-05T05:33:23.318Z,87.42
2023-03-05T05:35:54.884Z,85.74
2023-03-05T05:38:49.052Z,85.90
2023-03-05T05:41:21.222Z,84.95
2023-03-05T05:43:50.715Z,84.99
2023-03-05T05:46:29.251Z,85.26
2023-03-05T05:49:06.346Z,85.06
2023-03-05T05:51:42.655Z,85.03
2023-03-05T05:54:37.071Z,85.74
2023-03-05T05:57:53.340Z,86.02
2023-03-05T06:00:24.589Z,86.60
2023-03-05T06:03:29.426Z,87.09
2023-03-05T06:06:32.681Z,86.92
2023-03-05T06:09:18.358Z,86.23
2023-03-05T06:11:58.278Z,85.58
2023-03-05T06:14:52.333Z,85.31
2023-03-05T06:17:32.944Z,85.65
2023-03-05T06:20:25.007Z,85.48
2023-03-05T06:22:53.471Z,86.02
2023-03-05T06:25:24.932Z,86.47
2023-03-05T06:28:13.250Z,86.72
2023-03-05T06:30:44.198Z,86.06
2023-03-05T06:33:49.386Z,86.35
2023-03-05T06:36:33.406Z,86.51
2023-03-05T06:39:05.489Z,86.59
2023-03-05T06:41:39.332Z,86.73
2023-03-05T06:44:20.275Z,86.67
2023-03-05T06:46:49.145Z,87.13
2023-03-05T06:50:17.289Z,87.53
2023-03-05T06:53:26.826Z,87.65
2023-03-05T06:56:26.473Z,86.91
2023-03-05T06:58:57.711Z,86.17
2023-03-05T07:01:31.289Z,86.26
2023-03-05T07:04:03.635Z,86.73
2023-03-05T07:06:57.870Z,86.63
2023-03-05T07:09:28.990Z,86.22
2023-03-05T07:12:11.862Z,86.02
2023-03-05T07:14:40.638Z,85.65
2023-03-05T07:17:19.299Z,85.68
2023-03-05T07:20:10.530Z,85.87
2023-03-05T07:22:41.739Z,85.52
2023-03-05T07:25:29.679Z,85.22
2023-03-05T07:28:51.725Z,84.95
2023-03-05T07:31:27.516Z,85.37
2023-03-05T07:33:56.056Z,85.84
2023-03-05T07:36:27.727Z,85.75
2023-03-05T07:38:59.328Z,85.90
2023-03-05T07:41:51.510Z,86.14
2023-03-05T07:44:27.681Z,86.67
2023-03-05T07:47:19.574Z,86.80
2023-03-05T07:50:20.181Z,86.64
2023-03-05T07:53:11.429Z,87.22
2023-03-05T07:56:08.794Z,87.51
2023-03-05T07:59:00.327Z,87.73
2023-03-05T08:01:59.741Z,87.69
2023-03-05T08:05:03.674Z,88.01
2023-03-05T08:07:58.415Z,88.00
2023-03-05T08:10:30.203Z,87.95
2023-03-05T08:13:12.193Z,87.95
2023-03-05T08:15:46.277Z,87.89
2023-03-05T08:18:57.872Z,87.77
2023-03-05T08:21:33.973Z,87.67
2023-03-05T08:25:20.989Z,87.66
2023-03-05T08:28:20.187Z,87.62
2023-03-05T08:31:29.670Z,87.62
2023-03-05T08:34:08.138Z,87.58
2023-03-05T08:36:50.893Z,87.54
2023-03-05T08:40:01.460Z,87.63
2023-03-05T08:43:16.300Z,87.65
2023-03-05T08:46:15.106Z,87.74
2023-03-05T08:49:15.357Z,87.77
2023-03-05T08:52:24.266Z,87.78
2023-03-05T08:55:20.697Z,87.78
2023-03-05T08:58:00.607Z,87.76
2023-03-05T09:05:15.243Z,87.79
2023-03-05T09:08:18.974Z,87.80
2023-03-05T09:11:41.102Z,87.80
2023-03-05T09:15:32.849Z,87.80
2023-03-05T09:21:57.194Z,87.37
2023-03-05T09:28:36.461Z,87.33
2023-03-05T09:42:23.113Z,87.31
2023-03-05T09:45:22.472Z,87.11
2023-03-05T09:48:45.874Z,86.55
2023-03-05T10:17:57.447Z,81.57
2023-03-05T10:59:02.856Z,78.00
2023-03-05T11:02:05.169Z,77.30
2023-03-05T11:05:08.779Z,77.56
2023-03-05T11:07:46.306Z,77.79
2023-03-05T11:10:55.750Z,78.20
2023-03-05T11:13:28.659Z,78.06
2023-03-05T11:16:36.616Z,78.13
2023-03-05T11:20:15.697Z,77.18
2023-03-05T11:23:37.613Z,77.06
2023-03-05T11:26:22.944Z,74.56
2023-03-05T11:28:59.823Z,73.63
2023-03-05T11:31:31.416Z,74.12
2023-03-05T11:35:01.402Z,73.11
2023-03-05T12:19:01.371Z,78.90
2023-03-05T12:21:41.327Z,79.07
2023-03-05T12:25:12.690Z,78.71
2023-03-05T12:28:27.029Z,78.84
2023-03-05T12:32:07.437Z,78.69
2023-03-05T12:35:30.647Z,78.62
2023-03-05T12:38:59.794Z,78.34
2023-03-05T12:41:34.318Z,78.24
2023-03-05T12:45:03.463Z,77.97
2023-03-05T12:47:51.093Z,78.03
2023-03-05T12:50:34.077Z,77.72
2023-03-05T12:53:13.690Z,77.72
2023-03-05T12:56:25.643Z,77.78
2023-03-05T12:59:36.653Z,76.99
2023-03-05T13:02:59.032Z,75.58
2023-03-05T13:05:36.032Z,75.56
2023-03-05T13:08:30.557Z,75.35
2023-03-05T13:12:15.762Z,74.51
2023-03-05T13:15:15.313Z,75.03
2023-03-05T13:17:58.490Z,74.59
2023-03-05T13:20:56.914Z,74.62
2023-03-05T13:23:58.021Z,73.33
2023-03-05T13:26:39.754Z,73.20
2023-03-05T13:29:21.984Z,74.05
2023-03-05T13:31:52.567Z,74.28
2023-03-05T13:34:58.112Z,72.33
2023-03-05T13:37:40.661Z,71.57
2023-03-05T13:40:45.615Z,71.06
2023-03-05T13:43:24.218Z,71.24
2023-03-05T13:46:33.660Z,71.03
2023-03-05T13:49:45.783Z,71.02
2023-03-05T13:52:43.783Z,70.55
2023-03-05T13:55:39.112Z,69.61
2023-03-05T13:59:04.076Z,68.63
2023-03-05T14:02:43.979Z,70.55
2023-03-05T14:05:16.499Z,71.13
2023-03-05T14:08:35.793Z,71.57
2023-03-05T14:11:37.883Z,70.69
2023-03-05T14:14:15.531Z,70.35
2023-03-05T14:16:43.944Z,70.02
2023-03-05T14:19:36.590Z,68.41
2023-03-05T14:22:39.837Z,68.03
2023-03-05T14:25:28.108Z,69.34
2023-03-05T14:27:58.777Z,68.55
2023-03-05T14:30:27.574Z,68.00
2023-03-05T14:32:57.399Z,69.35
2023-03-05T14:35:28.569Z,68.88
2023-03-05T14:38:08.671Z,68.81
2023-03-05T14:40:37.138Z,67.09
2023-03-05T14:43:11.539Z,66.51
2023-03-05T14:46:12.299Z,65.56
2023-03-05T14:49:31.362Z,65.04
2023-03-05T14:52:34.179Z,63.98
2023-03-05T14:55:39.003Z,62.22
2023-03-05T14:58:50.528Z,62.02
2023-03-05T15:01:54.890Z,63.17
2023-03-05T15:04:57.379Z,62.12
2023-03-05T15:08:46.744Z,64.08
2023-03-05T15:11:27.961Z,63.08
2023-03-05T15:14:59.850Z,64.27
2023-03-05T15:17:39.505Z,64.12
2023-03-05T15:20:57.805Z,63.02
2023-03-05T15:23:36.625Z,63.47
2023-03-05T15:26:24.834Z,64.54
2023-03-05T15:29:23.900Z,63.82
2023-03-05T15:32:19.309Z,63.76
2023-03-05T15:35:10.801Z,63.60
2023-03-05T15:37:39.277Z,63.88
2023-03-05T15:40:31.552Z,63.63
2023-03-05T15:43:11.265Z,64.15
2023-03-05T15:45:49.334Z,64.19
2023-03-05T15:48:30.487Z,64.56
2023-03-05T15:51:29.243Z,64.22
2023-03-05T15:54:49.066Z,64.71
2023-03-05T15:57:21.813Z,64.94
2023-03-05T16:00:01.960Z,64.89
2023-03-05T16:02:32.624Z,65.23
2023-03-05T16:05:24.214Z,65.15
2023-03-05T16:08:03.118Z,65.56
2023-03-05T16:11:32.269Z,65.57
2023-03-05T16:14:30.517Z,65.46
2023-03-05T16:17:44.216Z,65.64
2023-03-05T16:20:17.026Z,65.91
2023-03-05T16:23:36.525Z,65.91
2023-03-05T16:26:37.734Z,65.89
2023-03-05T16:29:52.776Z,66.18
2023-03-05T16:32:31.909Z,66.04
2023-03-05T16:35:26.507Z,66.10
2023-03-05T16:38:11.502Z,66.60
2023-03-05T16:41:24.579Z,66.77
2023-03-05T16:44:11.853Z,67.16
2023-03-05T16:47:09.445Z,67.15
2023-03-05T16:50:01.434Z,67.76
2023-03-05T16:53:22.489Z,67.99
2023-03-05T16:56:45.194Z,68.55
2023-03-05T17:00:07.627Z,69.14
2023-03-05T17:03:45.762Z,69.78
2023-03-05T17:06:49.602Z,70.25
2023-03-05T17:10:01.437Z,70.78
2023-03-05T17:12:53.419Z,70.77
2023-03-05T17:15:22.330Z,70.86
2023-03-05T17:18:31.496Z,70.82
2023-03-05T17:21:47.606Z,71.54
2023-03-05T17:24:33.877Z,71.58
2023-03-05T17:27:29.613Z,71.70
2023-03-05T17:30:17.509Z,71.81
2023-03-05T17:32:52.589Z,71.58
2023-03-05T17:35:43.336Z,71.48
2023-03-05T17:38:37.630Z,71.50
2023-03-05T17:41:19.774Z,71.38
2023-03-05T17:45:08.730Z,71.27
2023-03-05T17:47:55.907Z,70.97
2023-03-05T17:51:26.485Z,70.80
2023-03-05T17:54:27.255Z,70.77
2023-03-05T17:57:57.827Z,70.62
2023-03-05T18:00:33.750Z,70.64
2023-03-05T18:04:22.967Z,70.64
2023-03-05T18:07:39.326Z,70.49
2023-03-05T18:10:16.793Z,70.42
2023-03-05T18:13:19.503Z,69.99
2023-03-05T18:17:01.288Z,70.05
2023-03-05T18:19:32.841Z,69.62
2023-03-05T18:22:45.771Z,69.87
2023-03-05T18:25:23.620Z,69.54
2023-03-05T18:28:39.231Z,69.23
2023-03-05T18:31:46.795Z,69.18
2023-03-05T18:35:21.881Z,69.25
2023-03-05T18:38:20.034Z,69.01
2023-03-05T18:41:46.533Z,69.58
2023-03-05T18:45:04.314Z,69.78
2023-03-05T18:48:06.928Z,70.03
2023-03-05T18:50:45.909Z,69.92
2023-03-05T18:54:06.451Z,69.82
2023-03-05T18:57:21.389Z,69.25
2023-03-05T19:00:50.531Z,69.09
2023-03-05T19:03:20.145Z,69.22
2023-03-05T19:06:32.968Z,69.45
2023-03-05T19:10:28.043Z,69.24
2023-03-05T19:13:51.900Z,69.37
2023-03-05T19:16:54.984Z,69.58
2023-03-05T19:19:54.164Z,69.72
2023-03-05T19:22:23.507Z,69.63
2023-03-05T19:25:17.851Z,69.61
2023-03-05T19:28:28.473Z,69.71
2023-03-05T19:31:37.787Z,69.97
2023-03-05T19:34:57.314Z,69.91
2023-03-05T19:38:28.254Z,70.21
2023-03-05T19:41:37.225Z,70.26
2023-03-05T19:45:10.697Z,70.27
2023-03-05T19:48:48.600Z,70.48
2023-03-05T19:55:21.391Z,70.25
2023-03-05T19:58:03.500Z,70.50
2023-03-05T20:00:58.426Z,70.55
2023-03-05T20:03:58.936Z,70.59
2023-03-05T20:07:24.219Z,70.74
2023-03-05T20:10:03.142Z,70.78
2023-03-05T20:12:51.608Z,70.82
2023-03-05T20:16:08.328Z,70.79
2023-03-05T20:19:11.566Z,70.92
2023-03-05T20:22:30.378Z,70.91
2023-03-05T20:25:12.209Z,71.14
2023-03-05T20:28:13.910Z,71.32
2023-03-05T20:31:21.770Z,71.30
2023-03-05T20:34:15.134Z,71.32
2023-03-05T20:36:46.846Z,71.45
2023-03-05T20:39:15.797Z,71.47
2023-03-05T20:41:44.676Z,71.55
2023-03-05T20:44:33.667Z,71.57
2023-03-05T20:47:46.741Z,71.55
2023-03-05T20:50:41.523Z,71.54
2023-03-05T20:53:19.245Z,71.68
2023-03-05T20:56:21.192Z,71.79
2023-03-05T20:58:49.346Z,71.85
2023-03-05T21:01:18.120Z,71.90
2023-03-05T21:04:07.268Z,71.89
2023-03-05T21:06:39.123Z,71.91
2023-03-05T21:09:10.777Z,71.84
2023-03-05T21:12:22.233Z,72.01
2023-03-05T21:15:16.576Z,72.07
2023-03-05T21:18:08.062Z,72.06
2023-03-05T21:20:44.222Z,71.88
2023-03-05T21:23:17.922Z,71.89
2023-03-05T21:25:46.972Z,71.83
2023-03-05T21:28:18.578Z,71.78
2023-03-05T21:31:19.842Z,71.88
2023-03-05T21:33:52.060Z,72.28
2023-03-05T21:36:23.881Z,72.47
2023-03-05T21:38:52.003Z,72.51
2023-03-05T21:41:20.659Z,72.38
2023-03-05T21:43:52.291Z,72.50
2023-03-05T21:46:26.306Z,72.51
2023-03-05T21:48:57.836Z,72.64
2023-03-05T21:52:11.654Z,72.74
2023-03-05T21:54:46.608Z,72.98
2023-03-05T21:57:33.573Z,73.01
2023-03-05T22:00:39.555Z,73.31
2023-03-05T22:03:34.979Z,73.41
2023-03-05T22:06:13.552Z,73.11
2023-03-05T22:09:02.364Z,72.98
2023-03-05T22:11:44.171Z,72.84
2023-03-05T22:14:55.675Z,72.74
2023-03-05T22:18:07.308Z,72.61
2023-03-05T22:21:07.631Z,72.40
2023-03-05T22:24:22.437Z,72.03
2023-03-05T22:27:19.545Z,71.89
2023-03-05T22:30:15.681Z,71.62
2023-03-05T22:32:53.874Z,71.75
2023-03-05T22:35:52.923Z,71.72
2023-03-05T22:38:24.156Z,71.31
2023-03-05T22:41:13.393Z,71.33
2023-03-05T22:44:07.622Z,71.12
2023-03-05T22:46:40.965Z,70.92
2023-03-05T22:49:21.885Z,71.08
2023-03-05T22:52:30.868Z,71.18
2023-03-05T22:55:39.817Z,71.31
2023-03-05T22:58:39.786Z,71.20
2023-03-05T23:02:08.870Z,71.33
2023-03-05T23:05:20.199Z,71.28
2023-03-05T23:08:19.107Z,71.39
2023-03-05T23:11:18.962Z,71.34
2023-03-05T23:14:02.139Z,71.13
2023-03-05T23:17:13.249Z,71.18
2023-03-05T23:19:44.246Z,71.67
2023-03-05T23:23:05.215Z,72.13
2023-03-05T23:26:26.548Z,73.12
2023-03-05T23:29:47.315Z,74.15
2023-03-05T23:33:09.708Z,75.05
2023-03-05T23:36:23.419Z,75.29
2023-03-05T23:39:10.346Z,76.49
2023-03-05T23:41:49.934Z,76.91
2023-03-05T23:44:37.755Z,76.92
2023-03-05T23:47:12.034Z,77.21
2023-03-05T23:49:45.426Z,77.49
2023-03-05T23:55:53.031Z,78.40
2023-03-05T23:59:03.268Z,79.90
